Time;durP1;ratioP1;P1;durP2;ratioP2;P2;SDS_P1;SDS_P2;PMS_P1;PMS_P2;Temp;Humidity;BMP_temperature;BMP_pressure;BME280_temperature;BME280_humidity;BME280_pressure;Samples;Min_cycle;Max_cycle;Signal;HPM_P1;HPM_P2
2023/04/17 00:00:35;;;;;;;;;;;;;;;12.18;100.00;100597.09;5071955;28;20455;-55
2023/04/17 00:03:01;;;;;;;;;;;;;;;12.17;100.00;100592.69;5062940;28;20476;-54
2023/04/17 00:05:26;;;;;;;;;;;;;;;12.17;100.00;100592.69;5063271;28;19954;-55
2023/04/17 00:07:53;;;;;;;;;;;;;;;12.16;100.00;100590.94;5072533;28;19938;-54
2023/04/17 00:10:18;;;;;;;;;;;;;;;12.18;100.00;100596.22;5071936;28;20035;-54
2023/04/17 00:12:43;;;;;;;;;;;;;;;12.16;100.00;100590.94;5071918;28;20458;-55
2023/04/17 00:15:09;;;;;;;;;;;;;;;12.16;100.00;100590.94;5072261;28;19927;-54
2023/04/17 00:17:34;;;;;;;;;;;;;;;12.14;100.00;100590.09;5071913;28;19932;-55
2023/04/17 00:20:00;;;;;;;;;;;;;;;12.15;100.00;100590.97;5072549;28;19951;-54
2023/04/17 00:22:25;;;;;;;;;;;;;;;12.16;100.00;100592.75;5072634;28;19934;-54
2023/04/17 00:24:50;;;;;;;;;;;;;;;12.18;100.00;100590.88;5072532;28;20012;-55
2023/04/17 00:27:16;;;;;;;;;;;;;;;12.16;100.00;100590.94;5071096;28;19934;-55
2023/04/17 00:29:41;;;;;;;;;;;;;;;12.18;100.00;100583.75;5072418;28;20410;-55
2023/04/17 00:32:06;;;;;;;;;;;;;;;12.17;100.00;100582.03;5071294;28;19928;-55
2023/04/17 00:34:31;;;;;;;;;;;;;;;12.18;100.00;100583.75;5072862;28;20421;-55
2023/04/17 00:36:58;;;;;;;;;;;;;;;12.18;100.00;100575.78;5066457;28;19928;-55
2023/04/17 00:39:23;;;;;;;;;;;;;;;12.21;100.00;100581.00;5070031;28;20258;-54
2023/04/17 00:41:48;;;;;;;;;;;;;;;12.20;100.00;100573.06;5071811;28;19927;-54
2023/04/17 00:44:14;;;;;;;;;;;;;;;12.19;100.00;100569.50;5071699;28;19916;-54
2023/04/17 00:46:39;;;;;;;;;;;;;;;12.20;100.00;100568.59;5072356;28;19946;-54
2023/04/17 00:49:04;;;;;;;;;;;;;;;12.20;100.00;100575.72;5072177;28;20379;-54
2023/04/17 00:51:31;;;;;;;;;;;;;;;12.17;100.00;100563.38;5071269;28;19920;-54
2023/04/17 00:53:57;;;;;;;;;;;;;;;12.19;100.00;100565.97;5072499;28;20021;-54
2023/04/17 00:56:22;;;;;;;;;;;;;;;12.17;100.00;100566.03;5070707;28;20343;-55
2023/04/17 00:58:48;;;;;;;;;;;;;;;12.16;100.00;100560.75;5070995;28;19927;-54
2023/04/17 01:01:13;;;;;;;;;;;;;;;12.09;100.00;100564.50;5070700;28;19936;-55
2023/04/17 01:03:38;;;;;;;;;;;;;;;12.07;100.00;100564.56;5071269;28;19923;-55
2023/04/17 01:06:04;;;;;;;;;;;;;;;12.06;100.00;100560.13;5071559;28;19950;-56
2023/04/17 01:08:37;;;;;;;;;;;;;;;12.07;100.00;100559.22;5051133;28;19982;-55
2023/04/17 01:11:02;;;;;;;;;;;;;;;12.05;100.00;100555.72;5063690;28;19951;-56
2023/04/17 01:13:28;;;;;;;;;;;;;;;12.03;100.00;100559.34;5071077;28;20469;-56
2023/04/17 01:15:53;;;;;;;;;;;;;;;12.00;100.00;100557.66;5070291;28;19949;-56
2023/04/17 01:18:18;;;;;;;;;;;;;;;11.99;100.00;100555.91;5071147;28;19964;-56
2023/04/17 01:20:44;;;;;;;;;;;;;;;11.99;100.00;100555.91;5071288;28;20308;-56
2023/04/17 01:23:10;;;;;;;;;;;;;;;11.97;100.00;100560.41;5070898;28;19933;-56
2023/04/17 01:25:35;;;;;;;;;;;;;;;11.96;100.00;100555.97;5071057;28;20039;-56
2023/04/17 01:28:00;;;;;;;;;;;;;;;11.97;100.00;100555.09;5071769;28;20441;-56
2023/04/17 01:30:26;;;;;;;;;;;;;;;11.96;100.00;100558.66;5071704;28;19984;-56
2023/04/17 01:32:52;;;;;;;;;;;;;;;11.98;100.00;100562.16;5070227;28;19954;-56
2023/04/17 01:35:17;;;;;;;;;;;;;;;11.95;100.00;100556.91;5068696;28;19937;-56
2023/04/17 01:37:43;;;;;;;;;;;;;;;11.97;100.00;100565.75;5070769;28;20356;-56
2023/04/17 01:40:08;;;;;;;;;;;;;;;11.96;100.00;100566.66;5071331;28;19928;-56
2023/04/17 01:42:34;;;;;;;;;;;;;;;11.96;100.00;100561.31;5071383;28;19913;-56
2023/04/17 01:44:59;;;;;;;;;;;;;;;11.96;100.00;100558.66;5070670;28;19934;-56
2023/04/17 01:47:24;;;;;;;;;;;;;;;11.92;100.00;100567.66;5070545;28;19993;-56
2023/04/17 01:49:50;;;;;;;;;;;;;;;11.95;100.00;100564.91;5070551;28;19935;-56
2023/04/17 01:52:15;;;;;;;;;;;;;;;11.92;100.00;100562.34;5070947;28;19956;-56
2023/04/17 01:54:40;;;;;;;;;;;;;;;11.85;100.00;100561.66;5071023;28;20387;-56
2023/04/17 01:57:05;;;;;;;;;;;;;;;11.86;100.00;100567.88;5066699;28;19960;-56
2023/04/17 01:59:31;;;;;;;;;;;;;;;11.89;100.00;100559.78;5071131;28;20385;-56
2023/04/17 02:01:56;;;;;;;;;;;;;;;11.90;100.00;100564.16;5069729;28;19944;-56
2023/04/17 02:04:21;;;;;;;;;;;;;;;11.85;100.00;100558.97;5071654;28;19937;-56
2023/04/17 02:06:46;;;;;;;;;;;;;;;11.87;100.00;100557.16;5070905;28;20277;-56
2023/04/17 02:09:12;;;;;;;;;;;;;;;11.88;100.00;100564.22;5070844;28;19962;-56
2023/04/17 02:11:37;;;;;;;;;;;;;;;11.83;100.00;100552.81;5069868;28;19925;-56
2023/04/17 02:14:02;;;;;;;;;;;;;;;11.83;100.00;100557.25;5070630;28;19933;-56
2023/04/17 02:16:28;;;;;;;;;;;;;;;11.76;100.00;100550.38;5069660;28;19959;-56
2023/04/17 02:18:54;;;;;;;;;;;;;;;11.77;100.00;100552.13;5070922;28;19927;-56
2023/04/17 02:21:20;;;;;;;;;;;;;;;11.78;100.00;100556.53;5070721;28;19929;-56
2023/04/17 02:23:45;;;;;;;;;;;;;;;11.80;100.00;100557.34;5068492;28;19936;-56
2023/04/17 02:26:10;;;;;;;;;;;;;;;11.81;100.00;100561.78;5059857;28;20127;-56
2023/04/17 02:28:35;;;;;;;;;;;;;;;11.82;100.00;100558.19;5069649;28;19946;-56
2023/04/17 02:31:01;;;;;;;;;;;;;;;11.80;100.00;100560.03;5070293;28;19955;-56
2023/04/17 02:33:26;;;;;;;;;;;;;;;11.79;100.00;100556.47;5070223;28;19969;-56
2023/04/17 02:35:52;;;;;;;;;;;;;;;11.77;100.00;100557.44;5069962;28;19932;-56
2023/04/17 02:38:17;;;;;;;;;;;;;;;11.68;100.00;100555.03;5068502;28;19920;-56
2023/04/17 02:40:42;;;;;;;;;;;;;;;11.64;100.00;100556.94;5069339;28;19999;-56
2023/04/17 02:43:08;;;;;;;;;;;;;;;11.64;100.00;100556.06;5065991;28;19948;-56
2023/04/17 02:45:33;;;;;;;;;;;;;;;11.61;100.00;100556.13;5068957;28;19938;-56
2023/04/17 02:47:58;;;;;;;;;;;;;;;11.60;100.00;100562.34;5070005;28;19942;-56
2023/04/17 02:50:23;;;;;;;;;;;;;;;11.60;100.00;100554.34;5069363;28;19929;-56
2023/04/17 02:52:49;;;;;;;;;;;;;;;11.59;100.00;100557.94;5069232;28;20342;-56
2023/04/17 02:55:14;;;;;;;;;;;;;;;11.56;100.00;100563.34;5068292;28;20004;-56
2023/04/17 02:57:39;;;;;;;;;;;;;;;11.53;100.00;100560.78;5069088;28;19992;-56
2023/04/17 03:00:12;;;;;;;;;;;;;;;11.55;100.00;100550.94;5055905;28;19946;-56
2023/04/17 03:02:37;;;;;;;;;;;;;;;11.55;100.00;100553.59;5052932;28;19931;-56
2023/04/17 03:05:03;;;;;;;;;;;;;;;11.54;100.00;100551.88;5078168;28;19942;-56
2023/04/17 03:07:28;;;;;;;;;;;;;;;11.55;100.00;100549.16;5090106;28;19955;-56
2023/04/17 03:09:56;;;;;;;;;;;;;;;11.55;100.00;100550.94;5074267;28;19931;-56
2023/04/17 03:12:22;;;;;;;;;;;;;;;11.53;100.00;100550.13;5069960;28;19951;-56
2023/04/17 03:14:47;;;;;;;;;;;;;;;11.54;100.00;100547.41;5069342;28;20421;-56
2023/04/17 03:17:13;;;;;;;;;;;;;;;11.56;100.00;100552.69;5068783;28;20027;-56
2023/04/17 03:19:39;;;;;;;;;;;;;;;11.53;100.00;100547.47;5067436;28;19934;-56
2023/04/17 03:22:04;;;;;;;;;;;;;;;11.51;100.00;100549.28;5067914;28;19920;-56
2023/04/17 03:24:30;;;;;;;;;;;;;;;11.51;100.00;100549.28;5068870;28;19984;-56
2023/04/17 03:26:56;;;;;;;;;;;;;;;11.49;100.00;100556.44;5067996;28;19924;-56
2023/04/17 03:29:21;;;;;;;;;;;;;;;11.47;100.00;100553.81;5068842;28;20065;-56
2023/04/17 03:31:46;;;;;;;;;;;;;;;11.48;100.00;100554.72;5069344;28;20007;-56
2023/04/17 03:34:12;;;;;;;;;;;;;;;11.52;100.00;100557.25;5068994;28;20026;-56
2023/04/17 03:36:37;;;;;;;;;;;;;;;11.50;100.00;100563.50;5065963;28;20062;-56
2023/04/17 03:39:03;;;;;;;;;;;;;;;11.51;100.00;100562.63;5049832;28;19952;-56
2023/04/17 03:41:28;;;;;;;;;;;;;;;11.55;100.00;100564.25;5055721;28;19935;-56
2023/04/17 03:43:53;;;;;;;;;;;;;;;11.58;100.00;100564.19;5069629;28;20509;-56
2023/04/17 03:46:19;;;;;;;;;;;;;;;11.61;100.00;100559.63;5069961;28;19988;-56
2023/04/17 03:48:44;;;;;;;;;;;;;;;11.62;100.00;100564.06;5068585;28;20390;-56
2023/04/17 03:51:09;;;;;;;;;;;;;;;11.62;100.00;100572.06;5069581;28;19952;-56
2023/04/17 03:53:35;;;;;;;;;;;;;;;11.59;100.00;100568.59;5067943;28;19942;-56
2023/04/17 03:56:00;;;;;;;;;;;;;;;11.53;100.00;100564.31;5051580;28;20001;-56
2023/04/17 03:58:25;;;;;;;;;;;;;;;11.50;100.00;100568.84;5065812;28;19931;-56
2023/04/17 04:00:54;;;;;;;;;;;;;;;11.55;100.00;100564.25;5069512;28;19944;-56
2023/04/17 04:03:19;;;;;;;;;;;;;;;11.59;100.00;100565.94;5068164;28;19931;-55
2023/04/17 04:05:45;;;;;;;;;;;;;;;11.63;100.00;100575.59;5075140;28;19947;-55
2023/04/17 04:08:10;;;;;;;;;;;;;;;11.63;100.00;100575.59;5048338;28;19938;-55
2023/04/17 04:10:35;;;;;;;;;;;;;;;11.65;100.00;100564.00;5068380;28;20030;-56
2023/04/17 04:13:01;;;;;;;;;;;;;;;11.62;100.00;100568.50;5070831;28;20365;-55
2023/04/17 04:15:26;;;;;;;;;;;;;;;11.62;100.00;100568.50;5071024;28;19981;-56
2023/04/17 04:17:51;;;;;;;;;;;;;;;11.62;100.00;100563.19;5070139;28;20310;-56
2023/04/17 04:20:16;;;;;;;;;;;;;;;11.65;100.00;100580.00;5072266;28;19947;-56
2023/04/17 04:22:43;;;;;;;;;;;;;;;11.69;100.00;100575.44;5072672;28;19929;-56
2023/04/17 04:25:09;;;;;;;;;;;;;;;11.64;100.00;100582.69;5071629;28;19947;-55
2023/04/17 04:27:34;;;;;;;;;;;;;;;11.58;100.00;100574.84;5070128;28;19956;-55
2023/04/17 04:30:00;;;;;;;;;;;;;;;11.59;100.00;100573.94;5069939;28;19962;-55
2023/04/17 04:32:26;;;;;;;;;;;;;;;11.59;100.00;100571.25;5070672;28;20307;-56
2023/04/17 04:34:52;;;;;;;;;;;;;;;11.63;100.00;100575.59;5070251;28;20011;-55
2023/04/17 04:37:20;;;;;;;;;;;;;;;11.64;100.00;100572.03;5060440;28;19923;-56
2023/04/17 04:39:52;;;;;;;;;;;;;;;11.58;100.00;100582.84;5051541;28;20024;-56
2023/04/17 04:42:20;;;;;;;;;;;;;;;11.62;100.00;100582.72;5065737;28;19985;-56
2023/04/17 04:44:46;;;;;;;;;;;;;;;11.65;100.00;100589.75;5071274;28;20010;-56
2023/04/17 04:47:11;;;;;;;;;;;;;;;11.63;100.00;100588.94;5072038;28;20342;-56
2023/04/17 04:49:36;;;;;;;;;;;;;;;11.63;100.00;100591.59;5071019;28;19934;-56
2023/04/17 04:52:02;;;;;;;;;;;;;;;11.65;100.00;100587.09;5070166;28;19999;-56
2023/04/17 04:54:27;;;;;;;;;;;;;;;11.61;100.00;100593.41;5069106;28;20008;-56
2023/04/17 04:56:52;;;;;;;;;;;;;;;11.65;100.00;100592.44;5070444;28;20011;-56
2023/04/17 04:59:17;;;;;;;;;;;;;;;11.69;100.00;100595.00;5071393;28;19920;-55
2023/04/17 05:01:43;;;;;;;;;;;;;;;11.70;100.00;100593.19;5071149;28;19952;-56
2023/04/17 05:04:08;;;;;;;;;;;;;;;11.73;100.00;100598.41;5072709;28;19930;-55
2023/04/17 05:06:33;;;;;;;;;;;;;;;11.72;100.00;100597.56;5092212;28;19942;-55
2023/04/17 05:08:59;;;;;;;;;;;;;;;11.79;100.00;100592.94;5065060;28;20364;-56
2023/04/17 05:11:24;;;;;;;;;;;;;;;11.86;100.00;100599.84;5068099;28;19950;-55
2023/04/17 05:13:50;;;;;;;;;;;;;;;11.91;100.00;100593.44;5071938;28;19925;-55
2023/04/17 05:16:15;;;;;;;;;;;;;;;11.95;100.00;100594.25;5071861;28;20094;-56
2023/04/17 05:18:40;;;;;;;;;;;;;;;11.95;100.00;100596.91;5071154;28;19916;-56
2023/04/17 05:21:05;;;;;;;;;;;;;;;11.99;100.00;100600.34;5071783;28;20713;-56
2023/04/17 05:23:31;;;;;;;;;;;;;;;12.03;100.00;100592.22;5071741;28;19928;-56
2023/04/17 05:25:57;;;;;;;;;;;;;;;12.04;100.00;100587.78;5070924;28;20534;-56
2023/04/17 05:28:22;;;;;;;;;;;;;;;12.02;100.00;100594.94;5071508;28;19930;-56
2023/04/17 05:30:48;;;;;;;;;;;;;;;12.00;100.00;100594.97;5070401;28;20376;-56
2023/04/17 05:33:13;;;;;;;;;;;;;;;11.99;100.00;100606.56;5064504;28;19924;-56
2023/04/17 05:35:38;;;;;;;;;;;;;;;12.02;100.00;100598.47;5062798;28;20463;-56
2023/04/17 05:38:06;;;;;;;;;;;;;;;12.02;100.00;100595.81;5069853;28;19996;-56
2023/04/17 05:40:32;;;;;;;;;;;;;;;12.03;100.00;100591.34;5070535;28;19964;-56
2023/04/17 05:43:03;;;;;;;;;;;;;;;12.11;100.00;100600.00;5070462;28;20432;-56
2023/04/17 05:45:29;;;;;;;;;;;;;;;12.10;100.00;100601.78;5069697;28;19939;-55
2023/04/17 05:47:54;;;;;;;;;;;;;;;12.15;100.00;100601.66;5070433;28;19952;-55
2023/04/17 05:50:19;;;;;;;;;;;;;;;12.22;100.00;100606.78;5070375;28;19962;-55
2023/04/17 05:52:47;;;;;;;;;;;;;;;12.35;100.00;100610.81;5070758;28;19947;-55
2023/04/17 05:55:12;;;;;;;;;;;;;;;12.36;100.00;100612.56;5060296;28;19927;-55
2023/04/17 05:57:38;;;;;;;;;;;;;;;12.33;100.00;100611.75;5070969;28;20343;-55
2023/04/17 06:00:09;;;;;;;;;;;;;;;12.33;100.00;100615.31;5071059;28;19924;-55
2023/04/17 06:02:36;;;;;;;;;;;;;;;12.39;100.00;100604.44;5070885;28;19938;-55
2023/04/17 06:05:03;;;;;;;;;;;;;;;12.46;100.00;100615.81;5077889;28;19948;-55
2023/04/17 06:07:28;;;;;;;;;;;;;;;12.41;100.00;100613.28;5070721;28;19939;-55
2023/04/17 06:09:54;;;;;;;;;;;;;;;12.40;100.00;100614.22;5069598;28;19930;-55
2023/04/17 06:12:19;;;;;;;;;;;;;;;12.35;100.00;100610.81;5069357;28;20448;-55
2023/04/17 06:14:44;;;;;;;;;;;;;;;12.27;100.00;100619.97;5069443;28;19912;-55
2023/04/17 06:17:11;;;;;;;;;;;;;;;12.30;100.00;100615.41;5065854;28;19931;-55
2023/04/17 06:19:36;;;;;;;;;;;;;;;12.31;100.00;100614.47;5068778;28;19942;-55
2023/04/17 06:22:02;;;;;;;;;;;;;;;12.42;100.00;100623.03;5070544;28;19950;-55
2023/04/17 06:24:27;;;;;;;;;;;;;;;12.51;100.00;100617.44;5069586;28;19977;-56
2023/04/17 06:26:52;;;;;;;;;;;;;;;12.61;100.00;100626.91;5069508;28;20319;-56
2023/04/17 06:29:17;;;;;;;;;;;;;;;12.60;100.00;100630.47;5070352;28;19931;-56
2023/04/17 06:31:43;;;;;;;;;;;;;;;12.66;100.00;100627.63;5069217;28;20388;-56
2023/04/17 06:34:08;;;;;;;;;;;;;;;12.71;100.00;100630.16;5069852;28;20025;-57
2023/04/17 06:36:33;;;;;;;;;;;;;;;12.67;100.00;100634.69;5069091;28;19932;-56
2023/04/17 06:38:59;;;;;;;;;;;;;;;12.68;100.00;100632.91;5070318;28;19920;-55
2023/04/17 06:41:24;;;;;;;;;;;;;;;12.59;100.00;100630.50;5066958;28;19985;-56
2023/04/17 06:43:49;;;;;;;;;;;;;;;12.58;100.00;100635.00;5069542;28;20007;-56
2023/04/17 06:46:15;;;;;;;;;;;;;;;12.60;100.00;100630.47;5059781;28;19939;-56
2023/04/17 06:48:40;;;;;;;;;;;;;;;12.52;100.00;100635.16;5056481;28;19921;-56
2023/04/17 06:51:05;;;;;;;;;;;;;;;12.65;100.00;100635.69;5069099;28;19941;-56
2023/04/17 06:53:31;;;;;;;;;;;;;;;12.78;100.00;100629.88;5070485;28;19959;-56
2023/04/17 06:55:56;;;;;;;;;;;;;;;12.83;100.00;100630.63;5068937;28;19923;-56
2023/04/17 06:58:21;;;;;;;;;;;;;;;12.90;100.00;100632.19;5067835;28;19963;-56
2023/04/17 07:00:47;;;;;;;;;;;;;;;12.81;100.00;100632.50;5068940;28;20448;-56
2023/04/17 07:03:13;;;;;;;;;;;;;;;12.78;100.00;100637.91;5060235;28;20360;-56
2023/04/17 07:05:38;;;;;;;;;;;;;;;12.76;100.00;100639.75;5075379;28;20414;-56
2023/04/17 07:08:04;;;;;;;;;;;;;;;12.92;100.00;100641.03;5089264;28;20021;-56
2023/04/17 07:10:29;;;;;;;;;;;;;;;13.11;100.00;100644.84;5066706;28;19920;-56
2023/04/17 07:12:54;;;;;;;;;;;;;;;13.17;100.00;100641.13;5069333;28;19957;-56
2023/04/17 07:15:20;;;;;;;;;;;;;;;13.30;100.00;100649.59;5069651;28;19927;-56
2023/04/17 07:17:45;;;;;;;;;;;;;;;13.21;100.00;100643.63;5069020;28;19921;-56
2023/04/17 07:20:11;;;;;;;;;;;;;;;13.26;100.00;100646.19;5069014;28;19920;-56
2023/04/17 07:22:36;;;;;;;;;;;;;;;13.29;100.00;100655.88;5069920;28;19928;-56
2023/04/17 07:25:01;;;;;;;;;;;;;;;13.27;100.00;100655.03;5068864;28;20311;-57
2023/04/17 07:27:26;;;;;;;;;;;;;;;13.15;100.00;100651.84;5069840;28;19951;-57
2023/04/17 07:29:53;;;;;;;;;;;;;;;13.16;100.00;100650.94;5069694;28;20039;-57
2023/04/17 07:32:20;;;;;;;;;;;;;;;13.20;100.00;100652.59;5069106;28;20411;-56
2023/04/17 07:34:46;;;;;;;;;;;;;;;13.35;100.00;100647.63;5069678;28;19927;-57
2023/04/17 07:37:12;;;;;;;;;;;;;;;13.34;100.00;100659.25;5069280;28;20044;-57
2023/04/17 07:39:37;;;;;;;;;;;;;;;13.35;100.00;100652.97;5064696;28;20525;-57
2023/04/17 07:42:05;;;;;;;;;;;;;;;13.21;100.00;100665.00;5068644;28;19940;-56
2023/04/17 07:44:31;;;;;;;;;;;;;;;13.19;100.00;100652.63;5068336;28;19931;-56
2023/04/17 07:46:56;;;;;;;;;;;;;;;13.22;100.00;100652.53;5071898;28;19930;-57
2023/04/17 07:49:21;;;;;;;;;;;;;;;13.34;100.00;100659.25;5072290;28;19959;-57
2023/04/17 07:51:47;;;;;;;;;;;;;;;13.43;100.00;100656.25;5073094;28;19973;-56
2023/04/17 07:54:12;;;;;;;;;;;;;;;13.43;100.00;100664.28;5073292;28;19962;-56
2023/04/17 07:56:37;;;;;;;;;;;;;;;13.47;100.00;100660.59;5072955;28;19931;-56
2023/04/17 07:59:03;;;;;;;;;;;;;;;13.53;100.00;100653.25;5070229;28;20348;-57
2023/04/17 08:01:28;;;;;;;;;;;;;;;13.62;100.00;100660.94;5065431;28;19939;-56
2023/04/17 08:03:54;;;;;;;;;;;;;;;13.66;100.00;100661.69;5072991;28;19929;-56
2023/04/17 08:06:19;;;;;;;;;;;;;;;13.67;100.00;100663.47;5072331;28;19959;-56
2023/04/17 08:08:46;;;;;;;;;;;;;;;13.82;100.00;100658.44;5072003;28;20401;-56
2023/04/17 08:11:12;;;;;;;;;;;;;;;14.00;100.00;100667.63;5067275;28;19931;-56
2023/04/17 08:13:37;;;;;;;;;;;;;;;14.26;100.00;100660.41;5063365;28;20064;-56
2023/04/17 08:16:03;;;;;;;;;;;;;;;14.35;100.00;100664.53;5059566;28;20031;-56
2023/04/17 08:18:28;;;;;;;;;;;;;;;14.10;98.51;100669.03;5051179;28;20287;-56
2023/04/17 08:20:54;;;;;;;;;;;;;;;14.08;98.45;100669.09;5051213;28;19943;-56
2023/04/17 08:23:19;;;;;;;;;;;;;;;13.89;98.65;100670.66;5066890;28;19989;-56
2023/04/17 08:25:45;;;;;;;;;;;;;;;13.79;99.08;100674.59;5071107;28;19920;-56
2023/04/17 08:28:10;;;;;;;;;;;;;;;13.92;99.22;100665.19;5072539;28;19928;-56
2023/04/17 08:30:35;;;;;;;;;;;;;;;14.09;99.88;100672.63;5072871;28;19981;-56
2023/04/17 08:33:00;;;;;;;;;;;;;;;14.30;99.47;100661.16;5071872;28;19927;-57
2023/04/17 08:35:26;;;;;;;;;;;;;;;14.60;99.02;100672.50;5072941;28;19920;-56
2023/04/17 08:37:51;;;;;;;;;;;;;;;14.71;96.50;100667.63;5072193;28;20435;-56
2023/04/17 08:40:17;;;;;;;;;;;;;;;14.83;94.61;100676.03;5061659;28;19927;-56
2023/04/17 08:42:43;;;;;;;;;;;;;;;15.14;94.04;100670.34;5067184;28;20028;-57
2023/04/17 08:45:10;;;;;;;;;;;;;;;15.47;92.32;100672.50;5070319;28;20447;-56
2023/04/17 08:47:37;;;;;;;;;;;;;;;15.60;90.66;100668.38;5070350;28;20030;-57
2023/04/17 08:50:08;;;;;;;;;;;;;;;15.63;88.47;100662.88;5070227;28;19951;-56
2023/04/17 08:52:53;;;;;;;;;;;;;;;15.41;89.17;100674.59;5068969;28;19952;-56
2023/04/17 08:55:21;;;;;;;;;;;;;;;15.30;88.55;100669.66;5069646;28;19936;-56
2023/04/17 08:57:53;;;;;;;;;;;;;;;15.01;88.34;100680.66;5069370;28;20061;-56
2023/04/17 09:00:25;;;;;;;;;;;;;;;14.88;88.94;100676.72;5071812;28;19974;-56
2023/04/17 09:02:51;;;;;;;;;;;;;;;15.08;88.88;100674.13;5071136;28;19966;-57
2023/04/17 09:05:23;;;;;;;;;;;;;;;15.07;88.62;100672.41;5082084;28;19952;-57
2023/04/17 09:07:49;;;;;;;;;;;;;;;15.06;88.81;100670.63;5060684;28;19939;-57
2023/04/17 09:10:15;;;;;;;;;;;;;;;15.22;88.10;100670.91;5070567;28;19991;-56
2023/04/17 09:12:40;;;;;;;;;;;;;;;15.05;88.19;100674.25;5071761;28;19965;-56
2023/04/17 09:15:24;;;;;;;;;;;;;;;14.99;87.32;100669.13;5071753;28;19912;-56
2023/04/17 09:17:49;;;;;;;;;;;;;;;14.85;87.04;100668.81;5070808;28;19934;-57
2023/04/17 09:20:16;;;;;;;;;;;;;;;14.93;88.53;100680.09;5072016;28;20753;-57
2023/04/17 09:22:41;;;;;;;;;;;;;;;14.77;89.28;100675.41;5071561;28;19922;-56
2023/04/17 09:25:16;;;;;;;;;;;;;;;14.81;88.16;100680.56;5070351;28;20400;-56
2023/04/17 09:27:41;;;;;;;;;;;;;;;14.93;87.48;100681.91;5070744;28;19916;-56
2023/04/17 09:30:07;;;;;;;;;;;;;;;14.98;88.22;100679.91;5069223;28;19980;-56
2023/04/17 09:32:32;;;;;;;;;;;;;;;15.03;87.53;100681.47;5070207;28;19924;-56
2023/04/17 09:34:59;;;;;;;;;;;;;;;15.06;85.24;100676.00;5068833;28;19932;-56
2023/04/17 09:37:26;;;;;;;;;;;;;;;15.13;84.33;100677.50;5070341;28;19927;-56
2023/04/17 09:39:56;;;;;;;;;;;;;;;15.27;83.66;100680.47;5070978;28;19965;-56
2023/04/17 09:42:21;;;;;;;;;;;;;;;15.25;81.38;100692.22;5070374;28;19946;-56
2023/04/17 09:44:47;;;;;;;;;;;;;;;15.26;82.61;100683.22;5068124;28;20024;-56
2023/04/17 09:47:14;;;;;;;;;;;;;;;15.18;82.99;100682.66;5070977;28;19913;-57
2023/04/17 09:49:48;;;;;;;;;;;;;;;15.09;84.67;100680.38;5067569;28;19943;-56
2023/04/17 09:52:13;;;;;;;;;;;;;;;15.40;86.30;100678.22;5069333;28;19916;-57
2023/04/17 09:54:40;;;;;;;;;;;;;;;15.59;85.45;100681.84;5070732;28;20459;-56
2023/04/17 09:57:07;;;;;;;;;;;;;;;15.58;83.61;100678.28;5069860;28;20002;-56
2023/04/17 09:59:32;;;;;;;;;;;;;;;15.62;82.52;100687.06;5070731;28;19935;-56
2023/04/17 10:01:59;;;;;;;;;;;;;;;15.57;83.32;100676.56;5070962;28;20043;-57
2023/04/17 10:04:27;;;;;;;;;;;;;;;15.70;83.09;100677.78;5069601;28;21515;-56
2023/04/17 10:06:56;;;;;;;;;;;;;;;15.74;83.27;100678.53;5070780;28;19937;-56
2023/04/17 10:09:21;;;;;;;;;;;;;;;15.81;82.07;100671.97;5066917;28;19913;-57
2023/04/17 10:11:46;;;;;;;;;;;;;;;15.78;81.33;100672.09;5063190;28;19960;-56
2023/04/17 10:14:29;;;;;;;;;;;;;;;15.86;80.73;100677.13;5070530;28;19920;-57
2023/04/17 10:16:54;;;;;;;;;;;;;;;15.72;80.59;100667.84;5070035;28;20402;-57
2023/04/17 10:19:23;;;;;;;;;;;;;;;15.69;80.94;100661.75;5070547;28;19979;-57
2023/04/17 10:22:08;;;;;;;;;;;;;;;15.44;81.18;100672.66;5070496;28;20658;-57
2023/04/17 10:24:34;;;;;;;;;;;;;;;15.47;81.85;100672.50;5069454;28;20126;-57
2023/04/17 10:27:00;;;;;;;;;;;;;;;15.58;82.65;100667.56;5070183;28;20018;-56
2023/04/17 10:29:43;;;;;;;;;;;;;;;15.61;80.77;100670.13;5068489;28;20046;-57
2023/04/17 10:32:09;;;;;;;;;;;;;;;15.51;80.67;100660.75;5069468;28;19966;-57
2023/04/17 10:34:35;;;;;;;;;;;;;;;15.55;80.76;100658.81;5068286;28;19916;-57
2023/04/17 10:37:01;;;;;;;;;;;;;;;15.74;82.54;100649.00;5068752;28;20395;-56
2023/04/17 10:39:27;;;;;;;;;;;;;;;16.02;82.14;100654.03;5070242;28;20368;-56
2023/04/17 10:42:02;;;;;;;;;;;;;;;16.16;76.76;100652.47;5069564;28;20017;-57
2023/04/17 10:44:32;;;;;;;;;;;;;;;16.53;78.01;100657.06;5070269;28;20010;-56
2023/04/17 10:46:57;;;;;;;;;;;;;;;16.71;76.49;100645.44;5060526;28;20380;-56
2023/04/17 10:49:22;;;;;;;;;;;;;;;16.96;76.11;100646.03;5069950;28;19953;-56
2023/04/17 10:51:47;;;;;;;;;;;;;;;16.78;75.72;100645.09;5069759;28;19996;-56
2023/04/17 10:54:14;;;;;;;;;;;;;;;16.86;74.96;100650.09;5068044;28;19942;-56
2023/04/17 10:56:47;;;;;;;;;;;;;;;17.04;74.92;100650.06;5069112;28;19959;-56
2023/04/17 10:59:16;;;;;;;;;;;;;;;17.35;72.69;100641.34;5067676;28;19946;-57
2023/04/17 11:01:47;;;;;;;;;;;;;;;17.99;72.20;100639.81;5070408;28;20049;-57
2023/04/17 11:04:22;;;;;;;;;;;;;;;18.35;70.01;100640.53;5069787;28;19955;-57
2023/04/17 11:06:48;;;;;;;;;;;;;;;18.63;68.05;100630.97;5050196;28;20387;-57
2023/04/17 11:09:13;;;;;;;;;;;;;;;18.73;64.57;100634.88;5064178;28;19936;-57
2023/04/17 11:11:40;;;;;;;;;;;;;;;19.21;69.14;100632.06;5066677;28;19984;-56
2023/04/17 11:14:09;;;;;;;;;;;;;;;19.27;60.82;100634.44;5066443;28;19938;-57
2023/04/17 11:16:36;;;;;;;;;;;;;;;19.17;63.34;100631.41;5067954;28;20577;-56
2023/04/17 11:19:01;;;;;;;;;;;;;;;19.01;62.13;100627.81;5065070;28;19916;-56
2023/04/17 11:21:27;;;;;;;;;;;;;;;18.95;61.49;100627.31;5073106;28;19923;-56
2023/04/17 11:23:52;;;;;;;;;;;;;;;19.24;64.79;100623.81;5072001;28;20437;-56
2023/04/17 11:26:19;;;;;;;;;;;;;;;19.73;62.28;100619.09;5074197;28;19996;-57
2023/04/17 11:28:45;;;;;;;;;;;;;;;19.92;58.10;100620.59;5073935;28;20082;-57
2023/04/17 11:31:13;;;;;;;;;;;;;;;19.98;56.49;100620.22;5074018;28;20587;-56
2023/04/17 11:33:38;;;;;;;;;;;;;;;19.73;59.33;100619.09;5073684;28;19986;-56
2023/04/17 11:36:05;;;;;;;;;;;;;;;19.38;59.96;100629.31;5073869;28;19939;-56
2023/04/17 11:38:31;;;;;;;;;;;;;;;18.97;62.29;100633.50;5071502;28;19920;-55
2023/04/17 11:40:57;;;;;;;;;;;;;;;18.25;63.21;100590.78;5072726;28;20303;-56
2023/04/17 11:43:23;;;;;;;;;;;;;;;18.30;65.78;100621.03;5069159;28;19942;-57
2023/04/17 11:45:49;;;;;;;;;;;;;;;18.48;65.90;100629.13;5071914;28;19955;-57
2023/04/17 11:48:15;;;;;;;;;;;;;;;18.34;63.84;100628.03;5073768;28;19942;-57
2023/04/17 11:50:42;;;;;;;;;;;;;;;18.44;62.77;100627.53;5072173;28;19940;-55
2023/04/17 11:53:07;;;;;;;;;;;;;;;18.71;62.63;100626.00;5071967;28;19947;-55
2023/04/17 11:55:34;;;;;;;;;;;;;;;19.11;63.33;100633.59;5072194;28;20318;-55
2023/04/17 11:58:00;;;;;;;;;;;;;;;19.28;62.31;100623.53;5071999;28;19962;-57
2023/04/17 12:00:28;;;;;;;;;;;;;;;19.02;58.83;100626.00;5072305;28;20684;-57
2023/04/17 12:02:57;;;;;;;;;;;;;;;19.02;59.67;100620.63;5069325;28;19931;-57
2023/04/17 12:05:23;;;;;;;;;;;;;;;18.60;60.92;100623.06;5082669;28;19950;-57
2023/04/17 12:08:06;;;;;;;;;;;;;;;18.49;61.22;100625.47;5093556;28;20730;-57
2023/04/17 12:10:37;;;;;;;;;;;;;;;18.30;61.75;100625.59;5080291;28;19941;-57
2023/04/17 12:13:02;;;;;;;;;;;;;;;17.99;63.12;100610.19;5071863;28;20054;-57
2023/04/17 12:15:27;;;;;;;;;;;;;;;17.54;60.48;100623.38;5070226;28;20060;-57
2023/04/17 12:17:53;;;;;;;;;;;;;;;17.56;63.91;100626.84;5071225;28;19912;-57
2023/04/17 12:20:18;;;;;;;;;;;;;;;17.46;65.35;100628.25;5072032;28;19938;-57
2023/04/17 12:22:43;;;;;;;;;;;;;;;17.10;66.07;100633.63;5071661;28;19949;-57
2023/04/17 12:25:09;;;;;;;;;;;;;;;17.02;68.35;100634.97;5072326;28;19916;-57